KLRD/LRD METAR and TAF weather

Enter ICAO airport designator
Station Type Date Time Source
KLRD METAR 2023/01/30 11:09 UTC NOAA

KLRD 301109Z AUTO 04015G19KT 2SM BR OVC005 13/12 A2997 RMK AO2


Station Type Date Time Source
KLRD Decoded METAR 2023/01/30 11:09 UTC NOAA

Laredo, Laredo International Airport, TX, United States (KLRD) 27-32-37N 099-27-41W
Jan 30, 2023 - 06:09 AM EST / 2023.01.30 1109 UTC
Wind: from the NE (040 degrees) at 17 MPH (15 KT) gusting to 22 MPH (19 KT):0
Visibility: 2 mile(s):0
Sky conditions: overcast
Weather: mist
Temperature: 55 F (13 C)
Dew Point: 53 F (12 C)
Relative Humidity: 93%
Pressure (altimeter): 29.97 in. Hg (1014 hPa)
ob: KLRD 301109Z AUTO 04015G19KT 2SM BR OVC005 13/12 A2997 RMK AO2
cycle: 11

Station Type Date Time Source
KLRD TAF 2023/01/30 12:24 UTC NOAA

TAF KLRD 301123Z 3012/3112 04012G19KT 5SM BR VCSH OVC005
TEMPO 3013/3017 1SM BR OVC004
FM302100 03012KT P6SM VCSH OVC010
FM310600 35008KT 5SM BR VCSH OVC005
TEMPO 3108/3112 2SM -RA

Example: see airport list